• Join FlightAware (Why Join?)
  • Login
  • US Flag 
03:29PM EDT


 

Airport Tracker/Info


-or-


 

Live Flight TrackerFlight Track Log ✈ OPN20 ✈ 07-May-2012 ✈ KGAI - KLNS

Flight Track Log - Related Links

Times and Time Zones

All times are in EDT time to prevent confusion due to time zone crossing. See the OPN20 flight status page for this flight to view local times or setup timezone preferences in your user account.

Time Position Orientation Groundspeed Altitude Reporting Facility
EDT Latitude Longitude Course Direction KTS MPH feet Rate Location/Type
02:03PM 39.2000 -77.1333 23° Northeast 136 157 2,200  Level Potomac TRACON
02:08PM 39.4167 -77.0167 27° Northeast 186 214 4,900 420 Climbing Potomac TRACON
02:09PM 39.4667 -76.9833 38° Northeast 193 222 4,900  Level Potomac TRACON
02:10PM 39.5000 -76.9500 49° Northeast 189 217 4,900  Level Potomac TRACON
02:11PM 39.5333 -76.9000 27° Northeast 187 215 4,900  Level Potomac TRACON
02:12PM 39.5833 -76.8667 40° Northeast 190 219 4,900  Level Potomac TRACON
02:19PM 39.8154 -76.6119 40° Northeast  Level FlightAware Approximate
02:20PM 39.8483 -76.5755 31° Northeast  Level FlightAware Approximate
02:21PM 39.8850 -76.5467 50° Northeast  Level FlightAware Approximate
02:22PM 39.9125 -76.5042 40° Northeast  Level FlightAware Approximate
02:23PM 39.9454 -76.4678 45° Northeast  Level FlightAware Approximate
02:24PM 39.9753 -76.4287 41° Northeast  Level FlightAware Approximate
02:25PM 40.0079 -76.3921 37° Northeast  Level FlightAware Approximate
02:26PM 40.0422 -76.3578 37° Northeast  Level FlightAware Approximate
02:27PM 40.0765 -76.3235 26° Northeast  Level FlightAware Approximate
02:28PM 40.1153 -76.2989 83° East  Level Estimated
02:29PM 40.1167 -76.2833 304° West  Level FlightAware Approximate
02:30PM 40.1408 -76.3301 124° Southeast  Level Estimated
02:31PM 40.1167 -76.2833 304° West  Level FlightAware Approximate
02:32PM 40.1408 -76.3301 124° Southeast  Level Estimated
02:33PM 40.1167 -76.2833 304° West  Level FlightAware Approximate
02:34PM 40.1408 -76.3301 304° West  Level Estimated